Time;durP1;ratioP1;P1;durP2;ratioP2;P2;SDS_P1;SDS_P2;PMS_P1;PMS_P2;Temp;Humidity;BMP_temperature;BMP_pressure;BME280_temperature;BME280_humidity;BME280_pressure;Samples;Min_cycle;Max_cycle;Signal;HPM_P1;HPM_P2
2021/09/28 00:01:22;;;;;;;12.15;1.38;;;;;;;;;;5054963;28;20485;-78
2021/09/28 00:03:48;;;;;;;15.80;2.25;;;;;;;;;;5054016;28;20040;-77
2021/09/28 00:06:13;;;;;;;7.85;1.08;;;;;;;;;;5055333;28;20462;-76
2021/09/28 00:08:41;;;;;;;8.60;1.38;;;;;;;;;;5055236;28;20048;-77
2021/09/28 00:11:07;;;;;;;13.73;2.08;;;;;;;;;;5055478;28;20029;-77
2021/09/28 00:13:32;;;;;;;9.32;1.40;;;;;;;;;;5054771;28;20035;-76
2021/09/28 00:15:58;;;;;;;9.02;1.17;;;;;;;;;;5055079;28;20029;-77
2021/09/28 00:18:24;;;;;;;9.77;1.80;;;;;;;;;;5053840;28;20090;-78
2021/09/28 00:20:49;;;;;;;9.00;1.58;;;;;;;;;;5054773;28;20488;-77
2021/09/28 00:23:14;;;;;;;6.40;1.20;;;;;;;;;;5055087;28;20017;-77
2021/09/28 00:25:41;;;;;;;13.93;1.88;;;;;;;;;;5054973;28;20048;-77
2021/09/28 00:28:06;;;;;;;12.07;1.23;;;;;;;;;;5054880;28;20126;-76
2021/09/28 00:30:31;;;;;;;18.73;1.58;;;;;;;;;;5054712;28;20060;-77
2021/09/28 00:32:56;;;;;;;6.60;1.10;;;;;;;;;;5055001;28;20060;-77
2021/09/28 00:35:22;;;;;;;9.05;1.55;;;;;;;;;;5054894;28;20025;-77
2021/09/28 00:37:47;;;;;;;13.20;1.92;;;;;;;;;;5054698;28;20522;-76
2021/09/28 00:40:12;;;;;;;7.93;1.55;;;;;;;;;;5054968;28;20036;-75
2021/09/28 00:42:38;;;;;;;7.43;1.13;;;;;;;;;;5054522;28;20640;-75
2021/09/28 00:45:03;;;;;;;16.05;1.70;;;;;;;;;;5053391;28;20377;-75
2021/09/28 00:47:29;;;;;;;11.90;1.20;;;;;;;;;;5054002;28;20029;-75
2021/09/28 00:49:54;;;;;;;8.80;2.67;;;;;;;;;;5054514;28;20090;-75
2021/09/28 00:52:20;;;;;;;9.98;1.13;;;;;;;;;;5054184;28;20021;-75
2021/09/28 00:54:45;;;;;;;10.82;1.63;;;;;;;;;;5054341;28;20035;-75
2021/09/28 00:57:11;;;;;;;4.80;1.70;;;;;;;;;;5054260;28;20485;-74
2021/09/28 00:59:37;;;;;;;10.00;1.05;;;;;;;;;;5054209;28;20021;-75
2021/09/28 01:02:03;;;;;;;13.35;1.75;;;;;;;;;;5054383;28;20036;-77
2021/09/28 01:04:28;;;;;;;16.10;1.90;;;;;;;;;;5054212;28;20115;-75
2021/09/28 01:06:53;;;;;;;18.42;2.00;;;;;;;;;;5054117;28;20021;-75
2021/09/28 01:09:19;;;;;;;18.38;1.92;;;;;;;;;;5054123;28;20436;-76
2021/09/28 01:11:44;;;;;;;11.05;1.50;;;;;;;;;;5053768;28;20036;-76
2021/09/28 01:14:09;;;;;;;13.07;2.20;;;;;;;;;;5053831;28;20134;-75
2021/09/28 01:16:34;;;;;;;12.23;1.30;;;;;;;;;;5053810;28;20068;-78
2021/09/28 01:19:00;;;;;;;12.68;1.83;;;;;;;;;;5054148;28;20036;-75
2021/09/28 01:21:26;;;;;;;18.42;1.83;;;;;;;;;;5053574;28;20021;-78
2021/09/28 01:23:51;;;;;;;16.65;2.10;;;;;;;;;;5053746;28;20040;-77
2021/09/28 01:26:17;;;;;;;10.52;1.60;;;;;;;;;;5053945;28;20497;-77
2021/09/28 01:28:46;;;;;;;8.98;1.77;;;;;;;;;;5053681;28;20025;-77
2021/09/28 01:31:12;;;;;;;20.88;2.30;;;;;;;;;;5053880;28;20033;-77
2021/09/28 01:33:37;;;;;;;10.73;1.92;;;;;;;;;;5053720;28;20049;-77
2021/09/28 01:36:02;;;;;;;16.48;2.33;;;;;;;;;;5053451;28;20531;-77
2021/09/28 01:38:28;;;;;;;12.95;1.83;;;;;;;;;;5053565;28;20063;-78
2021/09/28 01:40:54;;;;;;;11.45;1.63;;;;;;;;;;5053579;28;20057;-77
2021/09/28 01:43:20;;;;;;;17.50;1.98;;;;;;;;;;5053310;28;20032;-78
2021/09/28 01:45:45;;;;;;;13.00;2.63;;;;;;;;;;5053513;28;20097;-77
2021/09/28 01:48:11;;;;;;;9.15;1.50;;;;;;;;;;5053535;28;20464;-77
2021/09/28 01:50:36;;;;;;;31.70;2.47;;;;;;;;;;5053410;28;20025;-78
2021/09/28 01:53:02;;;;;;;10.00;1.45;;;;;;;;;;5053227;28;20028;-77
2021/09/28 01:55:28;;;;;;;11.82;1.38;;;;;;;;;;5053684;28;20048;-77
2021/09/28 01:57:56;;;;;;;18.63;2.60;;;;;;;;;;5052956;28;20037;-77
2021/09/28 02:00:25;;;;;;;24.77;1.77;;;;;;;;;;5052377;28;20036;-77
2021/09/28 02:02:50;;;;;;;18.00;1.90;;;;;;;;;;5053041;28;20504;-77
2021/09/28 02:05:15;;;;;;;11.18;1.40;;;;;;;;;;5053321;28;20017;-77
2021/09/28 02:07:41;;;;;;;18.20;1.88;;;;;;;;;;5053219;28;20071;-77
2021/09/28 02:10:06;;;;;;;16.85;1.90;;;;;;;;;;5053294;28;20025;-77
2021/09/28 02:12:32;;;;;;;13.45;2.95;;;;;;;;;;5053496;28;20445;-77
2021/09/28 02:14:58;;;;;;;16.92;1.70;;;;;;;;;;5053199;28;20029;-76
2021/09/28 02:17:23;;;;;;;27.15;2.33;;;;;;;;;;5053094;28;20443;-77
2021/09/28 02:19:48;;;;;;;15.07;1.70;;;;;;;;;;5053167;28;20100;-77
2021/09/28 02:22:13;;;;;;;15.60;2.00;;;;;;;;;;5053243;28;20420;-77
2021/09/28 02:24:39;;;;;;;14.43;1.80;;;;;;;;;;5052703;28;20036;-77
2021/09/28 02:27:04;;;;;;;21.00;1.92;;;;;;;;;;5053148;28;20040;-76
2021/09/28 02:29:29;;;;;;;18.88;1.90;;;;;;;;;;5052936;28;20469;-78
2021/09/28 02:31:55;;;;;;;16.02;2.85;;;;;;;;;;5053518;28;20036;-76
2021/09/28 02:34:20;;;;;;;13.27;1.60;;;;;;;;;;5052842;28;20049;-77
2021/09/28 02:36:45;;;;;;;23.50;2.03;;;;;;;;;;5052828;28;20370;-76
2021/09/28 02:39:10;;;;;;;26.92;1.75;;;;;;;;;;5052753;28;20033;-77
2021/09/28 02:41:36;;;;;;;16.67;2.08;;;;;;;;;;5052818;28;20017;-77
2021/09/28 02:44:02;;;;;;;15.57;1.55;;;;;;;;;;5053038;28;20393;-77
2021/09/28 02:46:28;;;;;;;14.05;1.42;;;;;;;;;;5052804;28;20480;-77
2021/09/28 02:48:53;;;;;;;10.25;1.60;;;;;;;;;;5052991;28;20017;-77
2021/09/28 02:51:19;;;;;;;14.98;1.38;;;;;;;;;;5053160;28;20025;-77
2021/09/28 02:53:45;;;;;;;20.75;1.42;;;;;;;;;;5052110;28;20470;-76
2021/09/28 02:56:10;;;;;;;19.15;1.73;;;;;;;;;;5053006;28;20033;-77
2021/09/28 02:58:35;;;;;;;15.75;1.73;;;;;;;;;;5052313;28;20078;-77
2021/09/28 03:01:01;;;;;;;15.50;2.22;;;;;;;;;;5052672;28;20477;-77
2021/09/28 03:03:27;;;;;;;24.83;1.92;;;;;;;;;;5052740;28;20110;-79
2021/09/28 03:05:52;;;;;;;21.92;2.22;;;;;;;;;;5052657;28;20385;-77
2021/09/28 03:08:17;;;;;;;14.77;1.67;;;;;;;;;;5052728;28;20033;-77
2021/09/28 03:10:43;;;;;;;15.02;3.33;;;;;;;;;;5052739;28;20381;-77
2021/09/28 03:13:09;;;;;;;20.60;1.80;;;;;;;;;;5055150;28;20037;-76
2021/09/28 03:15:34;;;;;;;22.05;2.40;;;;;;;;;;5055537;28;20595;-77
2021/09/28 03:17:59;;;;;;;13.55;1.80;;;;;;;;;;5055934;28;20021;-76
2021/09/28 03:20:25;;;;;;;11.15;1.65;;;;;;;;;;5056233;28;20060;-77
2021/09/28 03:22:50;;;;;;;20.33;2.13;;;;;;;;;;5056079;28;20041;-77
2021/09/28 03:25:15;;;;;;;17.20;1.95;;;;;;;;;;5056513;28;20096;-77
2021/09/28 03:27:41;;;;;;;16.08;1.85;;;;;;;;;;5055886;28;20035;-77
2021/09/28 03:30:06;;;;;;;22.65;2.83;;;;;;;;;;5056158;28;20380;-77
2021/09/28 03:32:32;;;;;;;10.50;1.80;;;;;;;;;;5055711;28;20028;-77
2021/09/28 03:34:57;;;;;;;23.52;1.90;;;;;;;;;;5055932;28;20033;-77
2021/09/28 03:37:22;;;;;;;22.92;2.75;;;;;;;;;;5055724;28;20041;-77
2021/09/28 03:39:48;;;;;;;13.68;1.75;;;;;;;;;;5055748;28;20021;-77
2021/09/28 03:42:13;;;;;;;19.92;1.83;;;;;;;;;;5055607;28;20040;-78
2021/09/28 03:44:38;;;;;;;15.85;1.73;;;;;;;;;;5055747;28;20039;-77
2021/09/28 03:47:04;;;;;;;22.92;1.83;;;;;;;;;;5055709;28;20017;-77
2021/09/28 03:49:29;;;;;;;23.02;2.80;;;;;;;;;;5055673;28;20454;-77
2021/09/28 03:51:54;;;;;;;15.95;1.67;;;;;;;;;;5055557;28;20481;-77
2021/09/28 03:54:19;;;;;;;17.00;4.05;;;;;;;;;;5054332;28;20021;-77
2021/09/28 03:56:45;;;;;;;15.38;1.80;;;;;;;;;;5055378;28;20531;-76
2021/09/28 03:59:10;;;;;;;14.68;1.80;;;;;;;;;;5055478;28;20033;-76
2021/09/28 04:01:35;;;;;;;16.65;1.85;;;;;;;;;;5055307;28;20028;-76
2021/09/28 04:04:00;;;;;;;24.88;2.60;;;;;;;;;;5055359;28;20056;-77
2021/09/28 04:06:26;;;;;;;20.08;1.80;;;;;;;;;;5055412;28;20331;-77
2021/09/28 04:08:51;;;;;;;15.35;1.92;;;;;;;;;;5055260;28;20059;-76
2021/09/28 04:11:16;;;;;;;24.42;2.00;;;;;;;;;;5055285;28;20025;-77
2021/09/28 04:13:43;;;;;;;12.15;1.95;;;;;;;;;;5054887;28;20029;-76
2021/09/28 04:16:08;;;;;;;23.00;2.53;;;;;;;;;;5055214;28;20025;-77
2021/09/28 04:18:34;;;;;;;24.45;1.80;;;;;;;;;;5055378;28;20424;-77
2021/09/28 04:20:59;;;;;;;15.50;2.00;;;;;;;;;;5054699;28;20040;-77
2021/09/28 04:23:24;;;;;;;13.43;1.70;;;;;;;;;;5054403;28;20024;-77
2021/09/28 04:25:50;;;;;;;20.55;2.05;;;;;;;;;;5054604;28;20029;-76
2021/09/28 04:28:15;;;;;;;17.63;1.80;;;;;;;;;;5054944;28;20029;-77
2021/09/28 04:30:40;;;;;;;17.33;1.80;;;;;;;;;;5054988;28;20028;-76
2021/09/28 04:33:06;;;;;;;17.92;2.00;;;;;;;;;;5054750;28;20390;-77
2021/09/28 04:35:31;;;;;;;20.50;2.53;;;;;;;;;;5054672;28;20168;-77
2021/09/28 04:37:56;;;;;;;17.23;1.75;;;;;;;;;;5054266;28;20033;-77
2021/09/28 04:40:21;;;;;;;21.48;2.13;;;;;;;;;;5054712;28;20032;-77
2021/09/28 04:42:47;;;;;;;19.85;2.95;;;;;;;;;;5054930;28;20033;-77
2021/09/28 04:45:12;;;;;;;16.13;2.67;;;;;;;;;;5054619;28;20021;-77
2021/09/28 04:47:38;;;;;;;23.48;2.17;;;;;;;;;;5054481;28;20057;-77
2021/09/28 04:50:04;;;;;;;16.90;2.30;;;;;;;;;;5054534;28;20039;-78
2021/09/28 04:52:29;;;;;;;27.42;2.40;;;;;;;;;;5054391;28;20104;-79
2021/09/28 04:54:55;;;;;;;19.20;1.98;;;;;;;;;;5053131;28;20052;-77
2021/09/28 04:57:21;;;;;;;14.45;1.83;;;;;;;;;;5054216;28;20531;-77
2021/09/28 04:59:47;;;;;;;13.57;1.65;;;;;;;;;;5054331;28;20020;-77
2021/09/28 05:02:12;;;;;;;10.10;1.52;;;;;;;;;;5054227;28;20025;-77
2021/09/28 05:04:37;;;;;;;27.92;2.67;;;;;;;;;;5054128;28;20035;-77
2021/09/28 05:07:03;;;;;;;20.27;1.65;;;;;;;;;;5054451;28;20021;-77
2021/09/28 05:09:30;;;;;;;18.30;2.75;;;;;;;;;;5054032;28;20477;-77
2021/09/28 05:11:56;;;;;;;15.07;1.88;;;;;;;;;;5053825;28;20553;-77
2021/09/28 05:14:21;;;;;;;17.27;2.17;;;;;;;;;;5053862;28;20103;-77
2021/09/28 05:16:46;;;;;;;18.73;2.08;;;;;;;;;;5053813;28;20057;-77
2021/09/28 05:19:11;;;;;;;14.45;2.42;;;;;;;;;;5054136;28;20508;-78
2021/09/28 05:21:37;;;;;;;14.35;2.70;;;;;;;;;;5053755;28;20025;-77
2021/09/28 05:24:02;;;;;;;12.05;2.33;;;;;;;;;;5054328;28;20021;-77
2021/09/28 05:26:27;;;;;;;21.52;2.40;;;;;;;;;;5053970;28;20029;-77
2021/09/28 05:28:53;;;;;;;18.13;2.05;;;;;;;;;;5053888;28;20075;-77
2021/09/28 05:31:18;;;;;;;11.43;2.60;;;;;;;;;;5053960;28;20028;-77
2021/09/28 05:33:44;;;;;;;17.63;2.05;;;;;;;;;;5053820;28;20060;-77
2021/09/28 05:36:09;;;;;;;9.30;2.03;;;;;;;;;;5053651;28;20408;-77
2021/09/28 05:38:34;;;;;;;12.88;2.22;;;;;;;;;;5053480;28;20036;-77
2021/09/28 05:41:03;;;;;;;18.60;2.08;;;;;;;;;;5053784;28;20041;-77
2021/09/28 05:43:29;;;;;;;16.77;1.77;;;;;;;;;;5053529;28;20112;-78
2021/09/28 05:45:54;;;;;;;8.30;1.60;;;;;;;;;;5053564;28;20175;-77
2021/09/28 05:48:19;;;;;;;13.98;1.73;;;;;;;;;;5053546;28;20037;-78
2021/09/28 05:50:46;;;;;;;20.33;2.47;;;;;;;;;;5053409;28;20506;-77
2021/09/28 05:53:11;;;;;;;21.17;1.90;;;;;;;;;;5053126;28;20477;-77
2021/09/28 05:55:37;;;;;;;18.00;2.00;;;;;;;;;;5053423;28;20056;-77
2021/09/28 05:58:02;;;;;;;13.00;1.85;;;;;;;;;;5053062;28;20408;-77
2021/09/28 06:00:28;;;;;;;12.50;1.60;;;;;;;;;;5053290;28;20029;-78
2021/09/28 06:02:53;;;;;;;15.63;1.70;;;;;;;;;;5053603;28;20040;-78
2021/09/28 06:05:20;;;;;;;27.55;2.17;;;;;;;;;;5053322;28;20024;-77
2021/09/28 06:07:46;;;;;;;17.17;2.55;;;;;;;;;;5053156;28;20351;-77
2021/09/28 06:10:11;;;;;;;20.58;2.35;;;;;;;;;;5053275;28;20025;-77
2021/09/28 06:12:36;;;;;;;19.92;2.05;;;;;;;;;;5052872;28;20017;-77
2021/09/28 06:15:02;;;;;;;15.27;2.45;;;;;;;;;;5053256;28;20029;-77
2021/09/28 06:17:27;;;;;;;20.10;2.20;;;;;;;;;;5052985;28;20465;-78
2021/09/28 06:19:52;;;;;;;17.92;2.55;;;;;;;;;;5052874;28;20120;-77
2021/09/28 06:22:18;;;;;;;19.35;3.00;;;;;;;;;;5052930;28;20021;-77
2021/09/28 06:24:43;;;;;;;21.63;1.95;;;;;;;;;;5053044;28;20064;-77
2021/09/28 06:27:08;;;;;;;13.55;1.73;;;;;;;;;;5053183;28;20063;-77
2021/09/28 06:29:34;;;;;;;14.68;1.77;;;;;;;;;;5052928;28;20076;-78
2021/09/28 06:31:59;;;;;;;22.73;1.95;;;;;;;;;;5053355;28;20496;-78
2021/09/28 06:34:25;;;;;;;11.57;1.77;;;;;;;;;;5053143;28;20452;-77
2021/09/28 06:36:50;;;;;;;9.95;1.50;;;;;;;;;;5052775;28;20132;-78
2021/09/28 06:39:15;;;;;;;9.18;1.52;;;;;;;;;;5053070;28;20037;-77
2021/09/28 06:41:41;;;;;;;20.55;1.88;;;;;;;;;;5052878;28;20017;-78
2021/09/28 06:44:06;;;;;;;12.82;1.90;;;;;;;;;;5052702;28;20034;-79
2021/09/28 06:46:34;;;;;;;15.15;2.22;;;;;;;;;;5054615;28;20060;-78
2021/09/28 06:48:59;;;;;;;14.48;1.88;;;;;;;;;;5056953;28;20032;-77
2021/09/28 06:51:25;;;;;;;13.38;1.88;;;;;;;;;;5056815;28;20037;-78
2021/09/28 06:53:50;;;;;;;11.48;1.88;;;;;;;;;;5056720;28;20033;-78
2021/09/28 06:56:20;;;;;;;19.95;1.80;;;;;;;;;;5056615;28;20115;-77
2021/09/28 06:58:46;;;;;;;20.60;2.03;;;;;;;;;;5056545;28;20033;-78
2021/09/28 07:01:11;;;;;;;22.98;2.10;;;;;;;;;;5056601;28;20039;-77
2021/09/28 07:03:37;;;;;;;19.13;2.63;;;;;;;;;;5056771;28;20119;-77
2021/09/28 07:06:02;;;;;;;20.58;1.80;;;;;;;;;;5056733;28;20044;-77
2021/09/28 07:08:28;;;;;;;12.73;1.67;;;;;;;;;;5056363;28;20032;-79
2021/09/28 07:10:53;;;;;;;13.13;1.67;;;;;;;;;;5056515;28;20382;-78
2021/09/28 07:13:19;;;;;;;12.02;1.83;;;;;;;;;;5056145;28;20072;-78
2021/09/28 07:15:44;;;;;;;14.25;1.88;;;;;;;;;;5056138;28;20381;-77
2021/09/28 07:18:11;;;;;;;11.00;1.35;;;;;;;;;;5056355;28;20039;-78
2021/09/28 07:20:37;;;;;;;11.05;1.40;;;;;;;;;;5056110;28;20462;-78
2021/09/28 07:23:02;;;;;;;15.75;2.05;;;;;;;;;;5055875;28;20064;-78
2021/09/28 07:25:28;;;;;;;15.23;1.65;;;;;;;;;;5055939;28;20055;-79
2021/09/28 07:27:58;;;;;;;13.20;1.27;;;;;;;;;;5056127;28;20366;-78
2021/09/28 07:30:24;;;;;;;10.70;1.10;;;;;;;;;;5055510;28;20029;-78
2021/09/28 07:32:49;;;;;;;20.77;2.25;;;;;;;;;;5055023;28;20094;-78
2021/09/28 07:35:15;;;;;;;8.25;1.20;;;;;;;;;;5055169;28;20440;-79
2021/09/28 07:37:40;;;;;;;9.13;1.55;;;;;;;;;;5054438;28;20132;-77
2021/09/28 07:40:06;;;;;;;9.25;1.65;;;;;;;;;;5055844;28;20453;-78
2021/09/28 07:42:31;;;;;;;10.63;1.65;;;;;;;;;;5055720;28;20025;-78
2021/09/28 07:44:56;;;;;;;10.00;1.60;;;;;;;;;;5055470;28;20401;-76
2021/09/28 07:47:22;;;;;;;10.77;1.55;;;;;;;;;;5055865;28;20110;-75
2021/09/28 07:49:48;;;;;;;7.38;1.17;;;;;;;;;;5055616;28;20057;-76
2021/09/28 07:52:13;;;;;;;10.18;1.20;;;;;;;;;;5055660;28;20205;-75
2021/09/28 07:54:40;;;;;;;9.20;1.17;;;;;;;;;;5045757;28;20019;-79
2021/09/28 07:57:05;;;;;;;6.18;1.20;;;;;;;;;;5054001;28;20120;-78
2021/09/28 07:59:30;;;;;;;8.43;1.67;;;;;;;;;;5053317;28;20132;-78
2021/09/28 08:01:56;;;;;;;6.68;0.90;;;;;;;;;;5039055;28;20026;-79
2021/09/28 08:04:21;;;;;;;6.68;1.05;;;;;;;;;;5044337;28;20366;-79
2021/09/28 08:06:47;;;;;;;4.25;0.88;;;;;;;;;;5054223;28;20048;-79
2021/09/28 08:09:13;;;;;;;8.80;2.25;;;;;;;;;;5053742;28;20025;-78
2021/09/28 08:11:38;;;;;;;15.45;1.38;;;;;;;;;;5054138;28;20106;-78
2021/09/28 08:14:03;;;;;;;5.75;0.90;;;;;;;;;;5054638;28;20029;-78
2021/09/28 08:16:29;;;;;;;7.60;0.85;;;;;;;;;;5053932;28;20037;-80
2021/09/28 08:18:54;;;;;;;9.57;1.25;;;;;;;;;;5044405;28;20061;-82
2021/09/28 08:21:20;;;;;;;9.18;1.52;;;;;;;;;;5053668;28;20036;-81
2021/09/28 08:23:45;;;;;;;14.07;1.52;;;;;;;;;;5053344;28;20033;-78
2021/09/28 08:29:10;;;;;;;9.95;2.20;;;;;;;;;;5033557;28;20029;-78
2021/09/28 08:31:37;;;;;;;10.35;1.42;;;;;;;;;;5055367;28;20021;-80
2021/09/28 08:34:03;;;;;;;7.07;0.95;;;;;;;;;;5054199;28;20119;-81
2021/09/28 08:36:29;;;;;;;7.22;1.23;;;;;;;;;;5054718;28;20020;-79
2021/09/28 08:38:54;;;;;;;9.88;1.27;;;;;;;;;;5060036;28;20038;-80
2021/09/28 08:41:21;;;;;;;9.93;1.08;;;;;;;;;;5063119;28;20036;-79
2021/09/28 08:43:46;;;;;;;9.38;1.42;;;;;;;;;;5067224;28;20119;-79
2021/09/28 08:46:14;;;;;;;15.65;2.17;;;;;;;;;;5056226;28;20095;-80
2021/09/28 08:48:39;;;;;;;10.82;1.40;;;;;;;;;;5068050;28;20040;-79
2021/09/28 08:51:04;;;;;;;9.85;1.75;;;;;;;;;;5052995;28;20029;-79
2021/09/28 08:53:30;;;;;;;8.63;1.17;;;;;;;;;;5064203;28;20025;-80
2021/09/28 08:55:55;;;;;;;11.38;1.63;;;;;;;;;;5058576;28;20040;-78
2021/09/28 08:58:21;;;;;;;8.48;1.13;;;;;;;;;;5065415;28;20773;-83
2021/09/28 09:00:47;;;;;;;8.52;1.40;;;;;;;;;;5052838;28;20024;-80
2021/09/28 09:03:31;;;;;;;14.20;2.13;;;;;;;;;;5063930;28;20183;-79
2021/09/28 09:06:00;;;;;;;7.75;1.75;;;;;;;;;;5067491;28;20036;-78
2021/09/28 09:08:30;;;;;;;8.35;1.60;;;;;;;;;;5052034;28;20119;-79
2021/09/28 09:11:06;;;;;;;13.52;2.17;;;;;;;;;;5053342;28;20036;-79
2021/09/28 09:13:32;;;;;;;9.13;1.60;;;;;;;;;;5052692;28;20025;-79
2021/09/28 09:15:58;;;;;;;8.73;1.75;;;;;;;;;;5052992;28;20418;-78
2021/09/28 09:18:23;;;;;;;11.48;1.48;;;;;;;;;;5053517;28;20211;-78
2021/09/28 09:20:48;;;;;;;10.40;1.58;;;;;;;;;;5048937;28;20088;-80
2021/09/28 09:23:27;;;;;;;12.68;1.80;;;;;;;;;;5047700;28;20389;-79
2021/09/28 09:26:00;;;;;;;17.02;1.65;;;;;;;;;;5049432;28;20056;-80
2021/09/28 09:28:33;;;;;;;12.13;2.13;;;;;;;;;;5048862;28;20078;-78
2021/09/28 09:31:39;;;;;;;10.63;2.10;;;;;;;;;;5049472;28;20373;-78
2021/09/28 09:34:07;;;;;;;12.32;2.10;;;;;;;;;;5007188;28;20123;-76
2021/09/28 09:36:33;;;;;;;11.32;1.70;;;;;;;;;;5007518;28;20113;-79
2021/09/28 09:38:58;;;;;;;11.15;1.52;;;;;;;;;;5027926;28;20131;-79
2021/09/28 09:41:28;;;;;;;11.27;1.60;;;;;;;;;;5049432;28;20480;-81
2021/09/28 09:44:13;;;;;;;14.15;2.47;;;;;;;;;;5049674;28;20113;-79
2021/09/28 09:46:41;;;;;;;9.90;2.45;;;;;;;;;;5049230;28;20053;-79
2021/09/28 09:49:06;;;;;;;11.48;2.10;;;;;;;;;;5049637;28;20024;-79
2021/09/28 09:51:39;;;;;;;16.65;1.70;;;;;;;;;;5048965;28;20029;-81
2021/09/28 09:54:04;;;;;;;12.20;1.88;;;;;;;;;;5048904;28;20017;-81
2021/09/28 09:56:50;;;;;;;8.98;2.55;;;;;;;;;;5048369;28;20496;-81
2021/09/28 09:59:15;;;;;;;;;;;;;;;;;;5029645;28;20405;-79
2021/09/28 10:01:40;;;;;;;14.80;1.80;;;;;;;;;;5029759;28;19912;-79
2021/09/28 10:04:07;;;;;;;14.90;2.03;;;;;;;;;;5029215;28;20281;-79
2021/09/28 10:06:32;;;;;;;16.45;1.80;;;;;;;;;;5029087;28;20029;-79
2021/09/28 10:08:58;;;;;;;12.30;2.00;;;;;;;;;;5029429;28;20037;-79
2021/09/28 10:11:26;;;;;;;19.70;1.70;;;;;;;;;;5037333;28;20033;-79
2021/09/28 10:13:55;;;;;;;20.23;3.10;;;;;;;;;;5048935;28;20024;-78
2021/09/28 10:16:27;;;;;;;14.98;2.15;;;;;;;;;;5044457;28;20037;-79
2021/09/28 10:18:53;;;;;;;11.65;1.50;;;;;;;;;;5049220;28;20307;-79
2021/09/28 10:21:36;;;;;;;22.15;4.50;;;;;;;;;;5049126;28;20419;-78
2021/09/28 10:24:17;;;;;;;11.38;1.75;;;;;;;;;;5052187;28;20538;-79
2021/09/28 10:26:42;;;;;;;9.40;2.20;;;;;;;;;;5052550;28;20029;-83
2021/09/28 10:29:26;;;;;;;8.98;1.30;;;;;;;;;;5053017;28;20041;-78
2021/09/28 10:31:51;;;;;;;9.88;1.52;;;;;;;;;;5051975;28;20083;-78
2021/09/28 10:34:16;;;;;;;9.15;1.70;;;;;;;;;;5052974;28;20052;-79
2021/09/28 10:36:49;;;;;;;12.25;1.63;;;;;;;;;;5050853;28;20064;-78
2021/09/28 10:39:34;;;;;;;11.70;1.67;;;;;;;;;;5053010;28;20505;-78
2021/09/28 10:42:01;;;;;;;12.40;2.20;;;;;;;;;;5051591;28;20489;-79
2021/09/28 10:44:29;;;;;;;17.05;1.67;;;;;;;;;;5052744;28;20111;-78
2021/09/28 10:46:55;;;;;;;12.50;1.60;;;;;;;;;;5052482;28;20041;-78
2021/09/28 10:49:24;;;;;;;16.50;1.85;;;;;;;;;;5053551;28;20067;-78
2021/09/28 10:51:49;;;;;;;11.35;1.83;;;;;;;;;;5053824;28;20110;-78
2021/09/28 10:54:15;;;;;;;11.90;1.52;;;;;;;;;;5052336;28;20105;-78
2021/09/28 10:56:50;;;;;;;10.48;1.55;;;;;;;;;;5052868;28;20547;-79
2021/09/28 10:59:15;;;;;;;;;;;;;;;;;;5053834;28;20032;-78
2021/09/28 11:02:00;;;;;;;12.32;2.13;;;;;;;;;;5053646;28;19995;-79
2021/09/28 11:04:26;;;;;;;10.07;1.40;;;;;;;;;;5053472;28;20083;-77
2021/09/28 11:06:52;;;;;;;6.28;1.17;;;;;;;;;;5053405;28;20033;-77
2021/09/28 11:09:19;;;;;;;8.15;1.95;;;;;;;;;;5053271;28;20036;-77
2021/09/28 11:11:47;;;;;;;18.10;3.08;;;;;;;;;;5053071;28;20023;-77
2021/09/28 11:14:13;;;;;;;13.25;2.10;;;;;;;;;;5053287;28;20033;-77
2021/09/28 11:16:42;;;;;;;18.52;2.47;;;;;;;;;;5053209;28;20146;-79
2021/09/28 11:19:08;;;;;;;8.68;1.73;;;;;;;;;;5053236;28;20108;-79
2021/09/28 11:21:35;;;;;;;15.00;2.20;;;;;;;;;;5053222;28;20107;-79
2021/09/28 11:24:00;;;;;;;11.10;1.42;;;;;;;;;;5052690;28;20040;-77
2021/09/28 11:26:30;;;;;;;10.70;1.75;;;;;;;;;;5052809;28;20909;-78
2021/09/28 11:28:56;;;;;;;9.00;1.63;;;;;;;;;;5053014;28;20025;-78
2021/09/28 11:31:29;;;;;;;9.60;2.03;;;;;;;;;;5052658;28;20377;-78
2021/09/28 11:33:57;;;;;;;11.05;2.50;;;;;;;;;;5052731;28;20098;-77
2021/09/28 11:36:22;;;;;;;11.77;1.83;;;;;;;;;;5043103;28;20029;-78
2021/09/28 11:38:49;;;;;;;12.70;1.63;;;;;;;;;;5051511;28;20025;-78
2021/09/28 11:41:16;;;;;;;13.98;2.08;;;;;;;;;;5051196;28;20213;-79
2021/09/28 11:43:43;;;;;;;13.35;1.55;;;;;;;;;;5052093;28;20033;-80
2021/09/28 11:46:11;;;;;;;11.27;2.13;;;;;;;;;;5051863;28;20058;-78
2021/09/28 11:48:37;;;;;;;14.02;2.03;;;;;;;;;;5051939;28;20036;-78
2021/09/28 11:51:06;;;;;;;11.32;2.05;;;;;;;;;;5050611;28;20044;-78
2021/09/28 11:53:35;;;;;;;13.80;1.50;;;;;;;;;;5052142;28;20028;-79
2021/09/28 11:56:01;;;;;;;8.57;2.15;;;;;;;;;;5051552;28;20041;-79
2021/09/28 11:58:26;;;;;;;10.65;1.50;;;;;;;;;;5050924;28;20056;-79
2021/09/28 12:00:51;;;;;;;5.13;1.23;;;;;;;;;;5051228;28;20040;-78
2021/09/28 12:03:23;;;;;;;10.27;1.40;;;;;;;;;;5050389;28;20037;-78
2021/09/28 12:08:22;;;;;;;12.32;1.35;;;;;;;;;;5051788;28;20028;-78
2021/09/28 12:10:47;;;;;;;8.60;1.40;;;;;;;;;;5050702;28;20057;-79
2021/09/28 12:13:23;;;;;;;12.60;1.55;;;;;;;;;;5050113;28;20029;-77
2021/09/28 12:15:59;;;;;;;7.07;1.60;;;;;;;;;;5043896;28;20302;-78
2021/09/28 12:18:24;;;;;;;10.93;1.40;;;;;;;;;;5051127;28;20033;-78
2021/09/28 12:20:49;;;;;;;7.22;1.25;;;;;;;;;;5050814;28;20119;-77
2021/09/28 12:23:15;;;;;;;11.02;1.95;;;;;;;;;;5051287;28;20044;-79
2021/09/28 12:25:43;;;;;;;10.35;1.60;;;;;;;;;;5049560;28;20017;-78
2021/09/28 12:28:13;;;;;;;10.63;1.27;;;;;;;;;;5051876;28;20039;-77
2021/09/28 12:30:52;;;;;;;9.75;1.63;;;;;;;;;;5051294;28;20390;-78
2021/09/28 12:33:18;;;;;;;11.75;1.98;;;;;;;;;;5051503;28;20049;-77
2021/09/28 12:35:43;;;;;;;9.77;1.50;;;;;;;;;;5051189;28;20040;-78
2021/09/28 12:38:10;;;;;;;14.05;1.35;;;;;;;;;;5051434;28;20043;-80
2021/09/28 12:40:38;;;;;;;10.73;1.50;;;;;;;;;;5051762;28;20029;-76
2021/09/28 12:43:11;;;;;;;8.45;1.52;;;;;;;;;;5051029;28;20036;-76
2021/09/28 12:45:42;;;;;;;11.10;1.55;;;;;;;;;;5051033;28;20025;-76
2021/09/28 12:48:08;;;;;;;9.13;1.38;;;;;;;;;;5051320;28;20375;-76
2021/09/28 12:50:34;;;;;;;6.15;1.70;;;;;;;;;;5051057;28;20017;-76
2021/09/28 12:53:19;;;;;;;8.23;1.45;;;;;;;;;;5050727;28;20036;-76
2021/09/28 12:55:46;;;;;;;9.27;1.23;;;;;;;;;;5050961;28;20048;-77
2021/09/28 12:58:13;;;;;;;13.88;1.50;;;;;;;;;;5051568;28;20090;-76
2021/09/28 13:00:38;;;;;;;6.47;1.00;;;;;;;;;;5050794;28;20469;-77
2021/09/28 13:03:07;;;;;;;9.50;1.92;;;;;;;;;;5051013;28;20059;-78
2021/09/28 13:05:34;;;;;;;6.20;1.33;;;;;;;;;;5050781;28;20037;-77
2021/09/28 13:08:00;;;;;;;7.35;1.38;;;;;;;;;;5050937;28;20037;-78
2021/09/28 13:10:26;;;;;;;13.02;1.52;;;;;;;;;;5050851;28;20028;-78
2021/09/28 13:12:51;;;;;;;9.68;1.40;;;;;;;;;;5051165;28;20369;-78
2021/09/28 13:15:17;;;;;;;8.02;1.42;;;;;;;;;;5050480;28;20044;-77
2021/09/28 13:17:43;;;;;;;8.88;1.50;;;;;;;;;;5050366;28;20066;-77
2021/09/28 13:20:09;;;;;;;9.32;1.45;;;;;;;;;;5051456;28;20025;-78
2021/09/28 13:22:35;;;;;;;6.40;1.35;;;;;;;;;;5050849;28;20029;-77
2021/09/28 13:25:00;;;;;;;9.32;1.27;;;;;;;;;;5050754;28;20017;-77
2021/09/28 13:27:26;;;;;;;7.68;1.77;;;;;;;;;;5050440;28;20059;-78
2021/09/28 13:29:51;;;;;;;13.05;1.58;;;;;;;;;;5050462;28;20116;-77
2021/09/28 13:32:16;;;;;;;9.77;2.08;;;;;;;;;;5050780;28;20021;-78
2021/09/28 13:34:42;;;;;;;9.15;2.08;;;;;;;;;;5050661;28;20540;-77
2021/09/28 13:37:07;;;;;;;15.02;2.28;;;;;;;;;;5050530;28;20079;-78
2021/09/28 13:39:32;;;;;;;9.85;2.58;;;;;;;;;;5051520;28;20036;-77
2021/09/28 13:41:58;;;;;;;17.58;3.30;;;;;;;;;;5050683;28;20060;-77
2021/09/28 13:44:23;;;;;;;14.52;2.58;;;;;;;;;;5051413;28;20381;-77
2021/09/28 13:46:48;;;;;;;15.73;2.92;;;;;;;;;;5049980;28;20051;-77
2021/09/28 13:49:13;;;;;;;23.83;2.45;;;;;;;;;;5050531;28;20021;-77
2021/09/28 13:51:39;;;;;;;15.32;2.67;;;;;;;;;;5050401;28;20255;-79
2021/09/28 13:54:04;;;;;;;12.30;1.70;;;;;;;;;;5050627;28;20020;-78
2021/09/28 13:56:30;;;;;;;7.30;1.35;;;;;;;;;;5048455;28;20158;-77
2021/09/28 13:58:55;;;;;;;9.30;1.52;;;;;;;;;;5050738;28;20120;-77
2021/09/28 14:01:21;;;;;;;18.33;2.42;;;;;;;;;;5050068;28;20059;-78
2021/09/28 14:03:46;;;;;;;17.45;2.20;;;;;;;;;;5041592;28;20040;-79
2021/09/28 14:06:15;;;;;;;11.88;1.60;;;;;;;;;;5049648;28;20064;-77
2021/09/28 14:08:40;;;;;;;10.55;1.70;;;;;;;;;;5049078;28;20048;-77
2021/09/28 14:11:05;;;;;;;11.52;1.45;;;;;;;;;;5048612;28;20831;-76
2021/09/28 14:13:31;;;;;;;6.40;1.50;;;;;;;;;;5044548;28;20036;-76
2021/09/28 14:15:56;;;;;;;14.63;2.03;;;;;;;;;;5048378;28;20416;-77
2021/09/28 14:18:21;;;;;;;12.77;2.40;;;;;;;;;;5048078;28;20145;-77
2021/09/28 14:20:46;;;;;;;10.32;1.35;;;;;;;;;;5049549;28;20033;-77
2021/09/28 14:23:12;;;;;;;9.95;2.00;;;;;;;;;;5049502;28;20020;-77
2021/09/28 14:25:37;;;;;;;8.95;1.33;;;;;;;;;;5048367;28;20523;-77
2021/09/28 14:28:04;;;;;;;8.27;1.55;;;;;;;;;;5048334;28;20036;-77
2021/09/28 14:30:29;;;;;;;9.10;1.80;;;;;;;;;;5049157;28;20021;-77
2021/09/28 14:32:54;;;;;;;5.22;1.00;;;;;;;;;;5049073;28;20064;-76
2021/09/28 14:35:20;;;;;;;9.07;0.93;;;;;;;;;;5048449;28;20131;-77